createdAt,value
2019-06-20T00:00:41.571Z,43.98
2019-06-20T00:03:09.732Z,39.48
2019-06-20T00:05:37.913Z,39.95
2019-06-20T00:08:07.081Z,41.85
2019-06-20T00:10:35.288Z,38.95
2019-06-20T00:13:03.651Z,38.05
2019-06-20T00:15:31.821Z,36.30
2019-06-20T00:17:59.933Z,36.30
2019-06-20T00:20:28.111Z,36.08
2019-06-20T00:22:56.242Z,34.60
2019-06-20T00:25:24.402Z,35.83
2019-06-20T00:27:52.542Z,40.65
2019-06-20T00:30:20.749Z,33.87
2019-06-20T00:32:48.884Z,34.27
2019-06-20T00:35:17.096Z,35.90
2019-06-20T00:37:45.317Z,31.27
2019-06-20T00:40:13.642Z,31.20
2019-06-20T00:42:41.882Z,31.55
2019-06-20T00:45:10.079Z,33.53
2019-06-20T00:47:38.280Z,30.17
2019-06-20T00:50:06.583Z,31.10
2019-06-20T00:52:34.691Z,31.80
2019-06-20T00:55:05.726Z,28.42
2019-06-20T00:57:33.909Z,31.37
2019-06-20T01:00:02.057Z,32.93
2019-06-20T01:02:30.444Z,32.20
2019-06-20T01:04:58.526Z,31.30
2019-06-20T01:07:26.630Z,31.77
2019-06-20T01:09:54.880Z,32.63
2019-06-20T01:12:22.997Z,31.40
2019-06-20T01:14:51.113Z,31.37
2019-06-20T01:17:19.294Z,33.63
2019-06-20T01:19:47.476Z,35.55
2019-06-20T01:22:15.607Z,32.78
2019-06-20T01:24:43.803Z,37.08
2019-06-20T01:27:11.976Z,34.55
2019-06-20T01:29:40.226Z,34.05
2019-06-20T01:32:10.007Z,34.73
2019-06-20T01:34:38.577Z,27.98
2019-06-20T01:37:07.533Z,26.95
2019-06-20T01:39:35.626Z,27.25
2019-06-20T01:42:03.966Z,28.27
2019-06-20T01:44:32.112Z,25.88
2019-06-20T01:47:00.323Z,26.05
2019-06-20T01:49:28.426Z,27.58
2019-06-20T01:51:56.530Z,28.12
2019-06-20T01:54:24.650Z,29.72
2019-06-20T01:56:52.800Z,26.82
2019-06-20T01:59:20.980Z,29.20
2019-06-20T02:01:49.170Z,26.67
2019-06-20T02:04:17.430Z,27.95
2019-06-20T02:06:45.565Z,26.30
2019-06-20T02:09:13.729Z,28.27
2019-06-20T02:11:41.917Z,26.30
2019-06-20T02:14:10.195Z,24.60
2019-06-20T02:16:38.407Z,29.55
2019-06-20T02:19:07.562Z,27.73
2019-06-20T02:21:35.693Z,30.20
2019-06-20T02:24:03.884Z,27.55
2019-06-20T02:26:32.072Z,28.23
2019-06-20T02:29:00.187Z,28.70
2019-06-20T02:31:28.376Z,25.00
2019-06-20T02:33:56.502Z,25.03
2019-06-20T02:36:24.713Z,24.47
2019-06-20T02:38:52.794Z,24.12
2019-06-20T02:41:20.905Z,23.83
2019-06-20T02:43:49.056Z,23.98
2019-06-20T02:46:17.265Z,21.10
2019-06-20T02:48:45.505Z,22.32
2019-06-20T02:51:13.618Z,22.27
2019-06-20T02:53:41.758Z,21.93
2019-06-20T02:56:09.896Z,23.10
2019-06-20T02:58:38.056Z,20.85
2019-06-20T03:01:06.256Z,21.97
2019-06-20T03:03:34.377Z,21.70
2019-06-20T03:06:02.711Z,21.85
2019-06-20T03:08:32.245Z,22.15
2019-06-20T03:11:01.877Z,21.25
2019-06-20T03:13:31.710Z,20.20
2019-06-20T03:15:59.886Z,21.40
2019-06-20T03:18:28.053Z,22.65
2019-06-20T03:20:56.158Z,20.30
2019-06-20T03:23:25.401Z,23.00
2019-06-20T03:25:53.646Z,22.90
2019-06-20T03:28:21.739Z,21.27
2019-06-20T03:30:49.923Z,19.67
2019-06-20T03:33:18.073Z,22.82
2019-06-20T03:35:46.207Z,21.17
2019-06-20T03:38:15.330Z,20.57
2019-06-20T03:40:43.723Z,21.62
2019-06-20T03:43:11.977Z,19.67
2019-06-20T03:45:40.164Z,21.30
2019-06-20T03:48:09.973Z,21.00
2019-06-20T03:50:38.509Z,20.70
2019-06-20T03:53:06.626Z,23.50
2019-06-20T03:55:35.108Z,22.75
2019-06-20T03:58:03.259Z,23.32
2019-06-20T04:00:32.719Z,24.02
2019-06-20T04:03:00.867Z,26.25
2019-06-20T04:05:28.985Z,23.10
2019-06-20T04:07:57.146Z,25.12
2019-06-20T04:10:27.705Z,24.57
2019-06-20T04:12:55.192Z,23.77
2019-06-20T04:15:24.482Z,23.62
2019-06-20T04:17:52.646Z,22.25
2019-06-20T04:20:20.937Z,21.00
2019-06-20T04:22:49.109Z,22.80
2019-06-20T04:25:17.298Z,26.77
2019-06-20T04:27:45.451Z,22.73
2019-06-20T04:30:14.548Z,23.45
2019-06-20T04:32:42.632Z,22.93
2019-06-20T04:35:10.901Z,22.55
2019-06-20T04:37:39.108Z,21.23
2019-06-20T04:40:07.407Z,21.37
2019-06-20T04:42:36.840Z,21.45
2019-06-20T04:45:34.185Z,20.85
2019-06-20T04:47:50.220Z,20.80
2019-06-20T04:50:20.251Z,19.57
2019-06-20T04:52:51.809Z,19.50
2019-06-20T04:55:20.042Z,21.17
2019-06-20T04:57:48.528Z,20.90
2019-06-20T05:00:16.762Z,20.45
2019-06-20T05:02:44.973Z,20.60
2019-06-20T05:05:13.270Z,19.95
2019-06-20T05:07:41.423Z,17.37
2019-06-20T05:10:11.677Z,21.85
2019-06-20T05:12:39.797Z,20.15
2019-06-20T05:15:08.153Z,19.45
2019-06-20T05:17:36.423Z,21.05
2019-06-20T05:20:05.513Z,21.82
2019-06-20T05:22:33.693Z,19.82
2019-06-20T05:25:01.883Z,19.17
2019-06-20T05:27:31.143Z,16.20
2019-06-20T05:29:59.307Z,16.70
2019-06-20T05:32:27.481Z,17.23
2019-06-20T05:34:55.590Z,16.97
2019-06-20T05:37:23.715Z,16.57
2019-06-20T05:39:51.995Z,15.20
2019-06-20T05:42:20.327Z,15.78
2019-06-20T05:44:48.577Z,15.80
2019-06-20T05:47:16.734Z,15.72
2019-06-20T05:49:44.918Z,15.83
2019-06-20T05:52:13.015Z,15.83
2019-06-20T05:54:41.127Z,16.00
2019-06-20T05:57:09.296Z,15.00
2019-06-20T05:59:37.427Z,15.10
2019-06-20T06:02:05.599Z,15.18
2019-06-20T06:04:41.850Z,13.72
2019-06-20T06:07:09.950Z,15.93
2019-06-20T06:09:38.088Z,15.20
2019-06-20T06:12:06.243Z,15.40
2019-06-20T06:14:35.445Z,13.63
2019-06-20T06:17:03.698Z,14.67
2019-06-20T06:19:33.419Z,12.95
2019-06-20T06:22:01.620Z,14.90
2019-06-20T06:24:29.790Z,15.78
2019-06-20T06:26:59.952Z,14.53
2019-06-20T06:29:27.710Z,16.50
2019-06-20T06:31:55.844Z,15.72
2019-06-20T06:34:24.035Z,15.78
2019-06-20T06:36:53.052Z,16.10
2019-06-20T06:39:21.200Z,15.80
2019-06-20T06:41:50.795Z,15.93
2019-06-20T06:44:19.964Z,15.53
2019-06-20T06:46:54.202Z,16.50
2019-06-20T09:33:26.396Z,19.77
2019-06-20T09:35:55.594Z,18.10
2019-06-20T09:38:24.182Z,15.35
2019-06-20T09:40:53.034Z,13.57
2019-06-20T09:43:27.541Z,12.80
2019-06-20T09:45:52.739Z,11.78
2019-06-20T09:48:20.975Z,11.77
2019-06-20T09:50:50.002Z,14.10
2019-06-20T09:53:19.013Z,14.60
2019-06-20T09:55:48.852Z,15.38
2019-06-20T09:58:18.054Z,14.87
2019-06-20T10:00:47.599Z,14.90
2019-06-20T10:03:16.890Z,14.40
2019-06-20T10:05:47.628Z,11.40
2019-06-20T10:08:18.449Z,11.38
2019-06-20T10:10:47.107Z,11.40
2019-06-20T10:13:16.400Z,12.20
2019-06-20T10:15:44.912Z,13.03
2019-06-20T10:18:14.566Z,12.07
2019-06-20T10:20:42.671Z,15.08
2019-06-20T10:23:10.963Z,14.07
2019-06-20T10:25:39.320Z,13.18
2019-06-20T10:28:08.072Z,15.10
2019-06-20T10:30:36.270Z,14.43
2019-06-20T10:33:04.491Z,14.70
2019-06-20T10:35:32.614Z,13.85
2019-06-20T10:38:00.838Z,14.30
2019-06-20T10:40:29.502Z,15.10
2019-06-20T10:42:59.152Z,15.63
2019-06-20T10:45:27.535Z,16.67
2019-06-20T10:47:55.749Z,16.73
2019-06-20T10:50:23.938Z,15.90
2019-06-20T10:52:53.616Z,17.42
2019-06-20T10:55:21.822Z,18.37
2019-06-20T10:57:51.879Z,18.00
2019-06-20T11:00:30.209Z,19.95
2019-06-20T11:02:51.280Z,15.93
2019-06-20T11:05:19.550Z,17.13
2019-06-20T11:07:47.767Z,16.25
2019-06-20T11:10:16.196Z,15.95
2019-06-20T11:12:52.242Z,17.30
2019-06-20T11:15:14.625Z,18.35
2019-06-20T11:17:44.078Z,17.57
2019-06-20T11:20:13.043Z,17.70
2019-06-20T11:22:41.632Z,19.85
2019-06-20T11:25:10.332Z,11.35
2019-06-20T11:27:38.758Z,10.60
2019-06-20T11:30:08.612Z,7.90
2019-06-20T11:32:37.813Z,7.15
2019-06-20T11:35:06.625Z,6.93
2019-06-20T11:37:35.053Z,5.42
2019-06-20T11:40:05.541Z,5.53
2019-06-20T11:42:34.704Z,4.65
2019-06-20T11:45:05.297Z,3.80
2019-06-20T11:47:34.976Z,3.55
2019-06-20T11:50:07.934Z,3.80
2019-06-20T11:52:41.065Z,4.00
2019-06-20T11:55:06.709Z,4.37
2019-06-20T11:57:34.805Z,4.53
2019-06-20T12:00:03.621Z,4.30
2019-06-20T12:02:31.938Z,4.83
2019-06-20T12:05:00.080Z,5.30
2019-06-20T12:07:28.172Z,4.80
2019-06-20T12:09:56.225Z,4.28
2019-06-20T12:12:24.477Z,4.13
2019-06-20T12:14:52.605Z,4.67
2019-06-20T12:17:20.779Z,4.97
2019-06-20T12:19:48.880Z,4.60
2019-06-20T12:22:17.144Z,4.87
2019-06-20T12:24:46.600Z,4.63
2019-06-20T12:27:14.990Z,5.05
2019-06-20T12:29:44.930Z,5.22
2019-06-20T12:32:13.542Z,4.95
2019-06-20T12:34:42.382Z,5.17
2019-06-20T12:37:11.540Z,4.57
2019-06-20T12:39:40.406Z,4.40
2019-06-20T12:42:08.633Z,4.30
2019-06-20T12:44:38.456Z,4.33
2019-06-20T12:47:06.671Z,4.00
2019-06-20T12:49:34.900Z,3.98
2019-06-20T12:52:03.049Z,4.33
2019-06-20T12:54:31.337Z,3.80
2019-06-20T12:56:59.444Z,4.40
2019-06-20T12:59:27.583Z,3.70
2019-06-20T13:02:01.781Z,3.35
2019-06-20T13:04:30.326Z,2.98
2019-06-20T13:07:01.777Z,3.00
2019-06-20T13:09:30.840Z,3.55
2019-06-20T13:11:59.020Z,2.80
2019-06-20T13:14:27.176Z,3.60
2019-06-20T13:16:55.246Z,3.00
2019-06-20T13:19:24.065Z,2.87
2019-06-20T13:21:52.152Z,3.05
2019-06-20T13:24:20.311Z,3.67
2019-06-20T13:26:50.784Z,3.22
2019-06-20T13:29:18.932Z,3.60
2019-06-20T13:32:00.606Z,3.50
2019-06-20T13:34:16.860Z,3.60
2019-06-20T13:36:45.030Z,3.70
2019-06-20T13:39:13.206Z,3.70
2019-06-20T13:41:41.455Z,3.80
2019-06-20T13:44:09.605Z,4.00
2019-06-20T13:46:37.807Z,3.80
2019-06-20T13:49:05.915Z,3.72
2019-06-20T13:51:34.484Z,3.62
2019-06-20T13:54:02.673Z,4.10
2019-06-20T13:56:32.255Z,4.00
2019-06-20T13:59:00.431Z,4.22
2019-06-20T14:01:28.551Z,3.95
2019-06-20T14:03:56.722Z,4.70
2019-06-20T14:06:24.900Z,4.10
2019-06-20T14:08:54.510Z,4.30
2019-06-20T14:11:22.786Z,4.37
2019-06-20T14:13:53.074Z,4.00
2019-06-20T14:16:20.751Z,3.50
2019-06-20T14:18:52.060Z,3.92
2019-06-20T14:21:20.211Z,4.25
2019-06-20T14:23:48.331Z,4.15
2019-06-20T14:26:17.095Z,3.75
2019-06-20T14:28:46.088Z,3.73
2019-06-20T14:31:15.266Z,3.85
2019-06-20T14:33:44.234Z,3.70
2019-06-20T14:36:12.497Z,3.50
2019-06-20T14:38:40.620Z,3.05
2019-06-20T14:41:08.823Z,3.00
2019-06-20T14:43:36.923Z,2.47
2019-06-20T14:46:05.069Z,2.60
2019-06-20T14:48:33.290Z,2.45
2019-06-20T14:51:01.446Z,1.90
2019-06-20T14:53:29.638Z,2.30
2019-06-20T14:55:57.854Z,2.50
2019-06-20T14:58:27.560Z,2.60
2019-06-20T15:00:55.720Z,2.80
2019-06-20T15:03:23.831Z,2.90
2019-06-20T15:05:52.604Z,3.08
2019-06-20T15:08:22.529Z,3.70
2019-06-20T15:10:51.787Z,3.20
2019-06-20T15:13:23.287Z,3.70
2019-06-20T15:15:51.408Z,2.90
2019-06-20T15:18:19.692Z,2.90
2019-06-20T15:20:48.719Z,3.20
2019-06-20T15:23:17.596Z,3.08
2019-06-20T15:25:47.085Z,3.00
2019-06-20T15:28:28.777Z,3.00
2019-06-20T15:30:57.304Z,2.83
2019-06-20T15:33:28.188Z,2.83
2019-06-20T15:35:56.991Z,2.62
2019-06-20T15:38:26.213Z,3.02
2019-06-20T15:40:55.421Z,3.05
2019-06-20T15:43:23.690Z,2.50
2019-06-20T15:45:52.104Z,3.22
2019-06-20T15:48:20.418Z,3.52
2019-06-20T15:50:52.404Z,2.70
2019-06-20T15:53:20.591Z,2.80
2019-06-20T15:55:48.806Z,3.30
2019-06-20T15:58:17.765Z,3.40
2019-06-20T16:00:46.022Z,3.50
2019-06-20T16:03:14.770Z,3.37
2019-06-20T16:05:43.066Z,3.80
2019-06-20T16:08:11.263Z,3.52
2019-06-20T16:10:39.428Z,4.20
2019-06-20T16:13:07.585Z,3.15
2019-06-20T16:15:35.729Z,3.10
2019-06-20T16:18:03.953Z,2.50
2019-06-20T16:20:36.748Z,2.42
2019-06-20T16:23:08.841Z,2.60
2019-06-20T16:25:40.028Z,2.50
2019-06-20T16:28:09.831Z,2.35
2019-06-20T16:30:39.089Z,2.22
2019-06-20T16:33:07.344Z,2.20
2019-06-20T16:35:36.578Z,1.82
2019-06-20T16:38:04.811Z,1.82
2019-06-20T16:40:38.057Z,1.90
2019-06-20T16:43:14.733Z,1.77
2019-06-20T16:45:42.963Z,2.00
2019-06-20T16:48:11.960Z,1.60
2019-06-20T16:50:43.701Z,1.70
2019-06-20T16:53:20.619Z,2.02
2019-06-20T16:55:54.017Z,1.70
2019-06-20T16:58:22.436Z,2.15
2019-06-20T17:00:50.703Z,1.72
2019-06-20T17:03:18.901Z,1.70
2019-06-20T17:05:47.139Z,1.90
2019-06-20T17:08:15.413Z,1.80
2019-06-20T17:10:43.575Z,1.80
2019-06-20T17:13:11.717Z,1.67
2019-06-20T17:15:39.930Z,1.90
2019-06-20T17:18:08.020Z,1.70
2019-06-20T17:20:36.108Z,1.82
2019-06-20T17:23:04.499Z,2.10
2019-06-20T17:25:32.725Z,2.10
2019-06-20T17:28:00.970Z,1.95
2019-06-20T17:30:29.115Z,2.02
2019-06-20T17:32:57.229Z,2.37
2019-06-20T17:35:25.453Z,2.60
2019-06-20T17:37:53.679Z,2.98
2019-06-20T17:40:23.403Z,2.52
2019-06-20T17:42:52.670Z,2.92
2019-06-20T17:45:21.061Z,2.97
2019-06-20T17:47:49.220Z,2.77
2019-06-20T17:50:17.784Z,3.00
2019-06-20T17:52:46.011Z,3.05
2019-06-20T17:55:14.405Z,3.92
2019-06-20T17:57:42.710Z,5.03
2019-06-20T18:00:14.240Z,6.03
2019-06-20T18:02:42.335Z,6.65
2019-06-20T18:05:10.523Z,7.77
2019-06-20T18:07:47.303Z,8.00
2019-06-20T18:10:22.082Z,8.50
2019-06-20T18:12:50.204Z,11.00
2019-06-20T18:15:18.420Z,12.18
2019-06-20T18:17:46.676Z,11.18
2019-06-20T18:20:17.493Z,12.68
2019-06-20T18:22:45.599Z,14.60
2019-06-20T18:25:15.404Z,15.87
2019-06-20T18:27:59.206Z,17.20
2019-06-20T18:30:41.588Z,18.50
2019-06-20T18:33:09.692Z,19.37
2019-06-20T18:35:37.987Z,17.67
2019-06-20T18:38:13.508Z,19.00
2019-06-20T18:40:44.252Z,17.73
2019-06-20T18:43:12.804Z,17.27
2019-06-20T18:45:42.877Z,16.77
2019-06-20T18:48:11.087Z,17.23
2019-06-20T18:50:39.213Z,16.95
2019-06-20T18:53:21.955Z,16.65
2019-06-20T18:55:38.558Z,16.37
2019-06-20T18:58:07.692Z,16.05
2019-06-20T19:00:49.697Z,15.50
2019-06-20T19:03:21.394Z,15.95
2019-06-20T19:05:52.961Z,15.93
2019-06-20T19:08:25.520Z,15.13
2019-06-20T19:10:57.807Z,14.30
2019-06-20T19:13:28.785Z,13.98
2019-06-20T19:15:57.780Z,14.78
2019-06-20T19:18:25.997Z,15.55
2019-06-20T19:20:54.373Z,12.75
2019-06-20T19:23:22.640Z,14.13
2019-06-20T19:25:59.874Z,13.18
2019-06-20T19:28:28.126Z,14.10
2019-06-20T19:30:56.533Z,15.77
2019-06-20T19:33:25.098Z,16.75
2019-06-20T19:35:56.367Z,17.60
2019-06-20T19:38:24.732Z,16.77
2019-06-20T19:40:53.064Z,19.55
2019-06-20T19:43:23.556Z,18.20
2019-06-20T19:45:51.676Z,20.15
2019-06-20T19:48:20.275Z,20.88
2019-06-20T19:50:49.331Z,20.62
2019-06-20T19:53:17.480Z,19.83
2019-06-20T19:55:52.877Z,19.13
2019-06-20T19:58:21.962Z,18.30
2019-06-20T20:00:51.982Z,16.15
2019-06-20T20:03:20.980Z,15.03
2019-06-20T20:05:53.249Z,14.17
2019-06-20T20:08:21.874Z,13.08
2019-06-20T20:10:51.437Z,13.20
2019-06-20T20:13:22.679Z,13.08
2019-06-20T20:15:51.157Z,13.25
2019-06-20T20:18:21.384Z,12.05
2019-06-20T20:20:49.298Z,11.08
2019-06-20T20:23:17.529Z,13.88
2019-06-20T20:25:49.673Z,15.40
2019-06-20T20:28:24.113Z,15.35
2019-06-20T20:30:53.787Z,15.10
2019-06-20T20:33:25.286Z,13.98
2019-06-20T20:35:56.819Z,13.53
2019-06-20T20:38:26.628Z,13.67
2019-06-20T20:40:56.818Z,12.95
2019-06-20T20:43:26.007Z,12.00
2019-06-20T20:45:57.405Z,10.53
2019-06-20T20:48:25.701Z,11.93
2019-06-20T20:50:53.983Z,11.50
2019-06-20T20:53:25.806Z,11.90
2019-06-20T20:55:54.325Z,11.53
2019-06-20T20:58:23.970Z,11.67
2019-06-20T21:01:10.334Z,10.97
2019-06-20T21:03:38.606Z,11.40
2019-06-20T21:06:06.871Z,12.00
2019-06-20T21:08:35.080Z,12.45
2019-06-20T21:11:06.789Z,14.63
2019-06-20T21:13:35.009Z,13.38
2019-06-20T21:16:04.747Z,13.47
2019-06-20T21:18:34.522Z,14.35
2019-06-20T21:21:04.307Z,13.90
2019-06-20T21:23:32.491Z,14.33
2019-06-20T21:26:02.422Z,12.80
2019-06-20T21:28:34.498Z,13.80
2019-06-20T21:31:02.689Z,14.07
2019-06-20T21:33:33.809Z,13.95
2019-06-20T21:36:18.637Z,14.60
2019-06-20T21:39:10.986Z,13.75
2019-06-20T21:44:29.896Z,12.68
2019-06-20T21:46:58.112Z,12.13
2019-06-20T21:49:26.268Z,12.47
2019-06-20T21:51:54.362Z,11.40
2019-06-20T21:54:22.556Z,10.93
2019-06-20T21:56:50.628Z,10.53
2019-06-20T21:59:20.357Z,10.43
2019-06-20T22:01:48.985Z,10.75
2019-06-20T22:04:17.098Z,10.15
2019-06-20T22:06:45.229Z,8.98
2019-06-20T22:09:14.349Z,8.70
2019-06-20T22:11:42.694Z,8.60
2019-06-20T22:14:11.777Z,8.13
2019-06-20T22:16:39.850Z,8.18
2019-06-20T22:19:08.073Z,7.65
2019-06-20T22:21:36.197Z,7.62
2019-06-20T22:24:04.598Z,7.20
2019-06-20T22:26:32.746Z,8.37
2019-06-20T22:29:00.948Z,7.77
2019-06-20T22:31:29.098Z,7.78
2019-06-20T22:33:58.310Z,7.20
2019-06-20T22:36:39.060Z,8.38
2019-06-20T22:38:56.250Z,7.70
2019-06-20T22:41:25.876Z,9.03
2019-06-20T22:43:54.083Z,8.05
2019-06-20T22:46:22.155Z,8.45
2019-06-20T22:48:50.660Z,8.83
2019-06-20T22:51:18.772Z,8.25
2019-06-20T22:53:48.013Z,9.10
2019-06-20T22:56:16.493Z,8.08
2019-06-20T22:58:44.597Z,8.60
2019-06-20T23:01:12.734Z,8.93
2019-06-20T23:03:40.867Z,8.50
2019-06-20T23:06:09.049Z,8.68
2019-06-20T23:08:37.232Z,8.88
2019-06-20T23:11:05.345Z,10.23
2019-06-20T23:13:33.500Z,9.43
2019-06-20T23:16:02.023Z,9.65
2019-06-20T23:18:30.147Z,8.50
2019-06-20T23:21:04.714Z,8.55
2019-06-20T23:23:28.253Z,10.05
2019-06-20T23:25:58.104Z,9.70
2019-06-20T23:28:26.209Z,9.40
2019-06-20T23:30:54.318Z,8.40
2019-06-20T23:33:22.507Z,9.43
2019-06-20T23:35:50.703Z,9.20
2019-06-20T23:38:18.840Z,9.48
2019-06-20T23:40:46.972Z,10.65
2019-06-20T23:43:15.152Z,9.40
2019-06-20T23:45:43.266Z,9.00
2019-06-20T23:48:11.402Z,9.28
2019-06-20T23:50:39.582Z,10.25
2019-06-20T23:53:09.339Z,10.82
2019-06-20T23:55:37.527Z,10.90
2019-06-20T23:58:05.728Z,9.35
